createdAt,value
2019-06-20T00:00:45.663Z,24.09
2019-06-20T00:01:45.619Z,24.05
2019-06-20T00:02:45.639Z,24.08
2019-06-20T00:03:45.612Z,24.03
2019-06-20T00:04:45.593Z,24.02
2019-06-20T00:05:45.600Z,23.97
2019-06-20T00:06:45.572Z,23.97
2019-06-20T00:07:45.563Z,23.93
2019-06-20T00:08:45.558Z,23.94
2019-06-20T00:09:45.542Z,23.83
2019-06-20T00:10:45.544Z,23.91
2019-06-20T00:11:45.517Z,23.91
2019-06-20T00:12:59.531Z,23.90
2019-06-20T00:13:46.496Z,23.84
2019-06-20T00:14:45.511Z,23.76
2019-06-20T00:15:45.493Z,23.83
2019-06-20T00:16:45.475Z,23.76
2019-06-20T00:17:45.446Z,23.79
2019-06-20T00:18:45.434Z,23.78
2019-06-20T00:19:45.427Z,23.75
2019-06-20T00:20:45.433Z,23.75
2019-06-20T00:21:45.412Z,23.78
2019-06-20T00:22:45.399Z,23.69
2019-06-20T00:23:45.381Z,23.76
2019-06-20T00:24:45.377Z,23.70
2019-06-20T00:25:45.372Z,23.75
2019-06-20T00:26:45.369Z,23.70
2019-06-20T00:27:45.344Z,23.65
2019-06-20T00:28:45.341Z,23.54
2019-06-20T00:29:45.314Z,23.60
2019-06-20T00:30:45.329Z,23.68
2019-06-20T00:31:45.294Z,23.63
2019-06-20T00:32:45.300Z,23.46
2019-06-20T00:33:45.278Z,23.47
2019-06-20T00:34:45.291Z,23.42
2019-06-20T00:35:45.271Z,23.39
2019-06-20T00:36:45.242Z,23.31
2019-06-20T00:37:45.242Z,23.20
2019-06-20T00:38:45.215Z,23.23
2019-06-20T00:39:45.209Z,23.16
2019-06-20T00:40:45.223Z,23.02
2019-06-20T00:41:45.205Z,23.12
2019-06-20T00:42:45.172Z,22.95
2019-06-20T00:43:45.165Z,22.94
2019-06-20T00:44:45.158Z,22.86
2019-06-20T00:45:45.178Z,22.73
2019-06-20T00:46:45.130Z,22.76
2019-06-20T00:47:45.119Z,22.61
2019-06-20T00:48:45.109Z,22.61
2019-06-20T00:49:45.100Z,22.46
2019-06-20T00:50:45.087Z,22.37
2019-06-20T00:51:45.091Z,22.45
2019-06-20T00:52:45.066Z,22.33
2019-06-20T00:53:45.053Z,22.18
2019-06-20T00:54:45.044Z,22.07
2019-06-20T00:55:45.031Z,22.05
2019-06-20T00:56:45.039Z,21.94
2019-06-20T00:57:45.017Z,21.77
2019-06-20T00:58:45.003Z,21.80
2019-06-20T00:59:45.000Z,21.74
2019-06-20T01:00:44.979Z,21.64
2019-06-20T01:01:44.998Z,21.52
2019-06-20T01:02:44.956Z,21.40
2019-06-20T01:03:44.952Z,21.35
2019-06-20T01:04:44.935Z,21.29
2019-06-20T01:05:44.923Z,21.21
2019-06-20T01:06:44.927Z,21.29
2019-06-20T01:07:44.906Z,21.14
2019-06-20T01:08:44.910Z,21.13
2019-06-20T01:09:44.886Z,21.06
2019-06-20T01:10:44.871Z,20.99
2019-06-20T01:11:44.884Z,20.98
2019-06-20T01:12:44.848Z,20.97
2019-06-20T01:13:44.840Z,20.88
2019-06-20T01:14:44.830Z,20.87
2019-06-20T01:15:44.821Z,20.89
2019-06-20T01:16:44.831Z,20.94
2019-06-20T01:17:44.790Z,20.89
2019-06-20T01:18:44.786Z,20.77
2019-06-20T01:19:44.801Z,20.84
2019-06-20T01:20:44.793Z,20.73
2019-06-20T01:21:44.772Z,20.79
2019-06-20T01:22:44.765Z,20.70
2019-06-20T01:23:44.726Z,20.69
2019-06-20T01:24:44.717Z,20.73
2019-06-20T01:25:44.723Z,20.70
2019-06-20T01:26:44.708Z,20.61
2019-06-20T01:27:44.706Z,20.57
2019-06-20T01:28:44.672Z,20.59
2019-06-20T01:29:44.660Z,20.61
2019-06-20T01:30:44.649Z,20.55
2019-06-20T01:31:44.653Z,20.72
2019-06-20T01:32:44.663Z,20.69
2019-06-20T01:33:44.617Z,20.61
2019-06-20T01:34:44.606Z,20.54
2019-06-20T01:35:44.602Z,20.57
2019-06-20T01:36:44.592Z,20.57
2019-06-20T01:37:44.595Z,20.57
2019-06-20T01:38:44.583Z,20.47
2019-06-20T01:39:44.551Z,20.41
2019-06-20T01:40:44.557Z,20.43
2019-06-20T01:41:44.531Z,20.47
2019-06-20T01:42:44.553Z,20.35
2019-06-20T01:43:50.700Z,20.39
2019-06-20T01:44:45.514Z,20.29
2019-06-20T01:45:44.504Z,20.41
2019-06-20T01:46:44.476Z,20.35
2019-06-20T01:47:44.463Z,20.26
2019-06-20T01:48:44.475Z,20.21
2019-06-20T01:49:44.443Z,20.31
2019-06-20T01:50:44.448Z,20.20
2019-06-20T01:51:44.434Z,20.17
2019-06-20T01:52:44.433Z,20.23
2019-06-20T01:53:44.397Z,20.29
2019-06-20T01:54:44.390Z,20.29
2019-06-20T01:55:44.377Z,20.28
2019-06-20T01:56:44.367Z,20.20
2019-06-20T01:57:44.384Z,20.10
2019-06-20T01:58:44.352Z,20.16
2019-06-20T01:59:44.341Z,20.16
2019-06-20T02:00:44.318Z,20.06
2019-06-20T02:01:44.311Z,20.08
2019-06-20T02:02:44.300Z,20.14
2019-06-20T02:03:44.306Z,20.16
2019-06-20T02:04:44.282Z,20.05
2019-06-20T02:05:44.268Z,20.01
2019-06-20T02:06:44.270Z,20.01
2019-06-20T02:07:44.246Z,20.02
2019-06-20T02:08:44.247Z,19.96
2019-06-20T02:09:44.222Z,19.99
2019-06-20T02:10:44.210Z,19.96
2019-06-20T02:11:44.204Z,19.94
2019-06-20T02:12:44.200Z,19.95
2019-06-20T02:13:44.199Z,19.78
2019-06-20T02:14:44.169Z,19.80
2019-06-20T02:15:44.161Z,19.76
2019-06-20T02:16:44.144Z,19.62
2019-06-20T02:17:44.141Z,19.63
2019-06-20T02:18:44.142Z,19.68
2019-06-20T02:19:44.121Z,19.73
2019-06-20T02:20:44.101Z,19.58
2019-06-20T02:21:44.124Z,19.54
2019-06-20T02:22:44.087Z,19.51
2019-06-20T02:23:44.083Z,19.43
2019-06-20T02:24:44.058Z,19.47
2019-06-20T02:25:44.050Z,19.39
2019-06-20T02:26:44.035Z,19.41
2019-06-20T02:27:44.035Z,19.31
2019-06-20T02:28:44.047Z,19.28
2019-06-20T02:29:44.026Z,19.29
2019-06-20T02:30:43.992Z,19.31
2019-06-20T02:31:43.981Z,19.25
2019-06-20T02:32:43.971Z,19.31
2019-06-20T02:33:43.974Z,19.23
2019-06-20T02:34:43.983Z,19.28
2019-06-20T02:35:43.935Z,19.22
2019-06-20T02:36:43.923Z,19.22
2019-06-20T02:37:43.920Z,19.22
2019-06-20T02:38:43.928Z,19.16
2019-06-20T02:39:43.896Z,19.22
2019-06-20T02:40:43.881Z,19.13
2019-06-20T02:41:43.869Z,19.10
2019-06-20T02:42:43.864Z,19.16
2019-06-20T02:43:43.846Z,19.10
2019-06-20T02:44:43.856Z,19.11
2019-06-20T02:45:43.840Z,19.16
2019-06-20T02:46:43.815Z,19.10
2019-06-20T02:47:43.806Z,19.10
2019-06-20T02:48:43.837Z,19.18
2019-06-20T02:49:43.799Z,19.08
2019-06-20T02:50:43.784Z,19.10
2019-06-20T02:51:43.766Z,19.08
2019-06-20T02:52:43.749Z,19.18
2019-06-20T02:53:43.741Z,19.07
2019-06-20T02:54:43.747Z,19.00
2019-06-20T02:55:43.830Z,19.02
2019-06-20T02:56:43.713Z,19.02
2019-06-20T02:57:43.695Z,19.04
2019-06-20T02:58:43.683Z,18.98
2019-06-20T02:59:43.694Z,18.95
2019-06-20T03:00:43.663Z,18.88
2019-06-20T03:01:43.662Z,18.81
2019-06-20T03:02:43.655Z,18.90
2019-06-20T03:03:43.635Z,18.87
2019-06-20T03:04:45.703Z,18.85
2019-06-20T03:05:43.616Z,18.90
2019-06-20T03:06:43.596Z,18.88
2019-06-20T03:07:43.596Z,18.85
2019-06-20T03:08:43.573Z,18.80
2019-06-20T03:09:43.586Z,18.80
2019-06-20T03:10:43.556Z,18.84
2019-06-20T03:11:43.544Z,18.80
2019-06-20T03:12:43.532Z,18.73
2019-06-20T03:13:43.540Z,18.82
2019-06-20T03:14:45.691Z,18.75
2019-06-20T03:15:43.496Z,18.73
2019-06-20T03:16:43.487Z,18.72
2019-06-20T03:17:43.478Z,18.66
2019-06-20T03:18:43.495Z,18.69
2019-06-20T03:19:43.470Z,18.66
2019-06-20T03:20:43.457Z,18.58
2019-06-20T03:21:43.432Z,18.51
2019-06-20T03:22:43.430Z,18.48
2019-06-20T03:23:43.409Z,18.47
2019-06-20T03:24:43.404Z,18.44
2019-06-20T03:25:43.412Z,18.47
2019-06-20T03:26:43.380Z,18.45
2019-06-20T03:27:43.390Z,18.45
2019-06-20T03:28:43.355Z,18.44
2019-06-20T03:29:43.349Z,18.39
2019-06-20T03:30:43.488Z,18.48
2019-06-20T03:31:43.328Z,18.39
2019-06-20T03:32:43.337Z,18.39
2019-06-20T03:33:43.324Z,18.42
2019-06-20T03:34:43.289Z,18.35
2019-06-20T03:35:43.314Z,18.36
2019-06-20T03:36:43.271Z,18.33
2019-06-20T03:37:43.256Z,18.30
2019-06-20T03:38:43.268Z,18.35
2019-06-20T03:39:43.233Z,18.35
2019-06-20T03:40:43.246Z,18.37
2019-06-20T03:41:43.228Z,18.32
2019-06-20T03:42:43.201Z,18.29
2019-06-20T03:43:43.191Z,18.26
2019-06-20T03:44:43.194Z,18.29
2019-06-20T03:45:43.172Z,18.29
2019-06-20T03:46:43.179Z,18.29
2019-06-20T03:47:43.147Z,18.21
2019-06-20T03:48:43.140Z,18.25
2019-06-20T03:49:43.139Z,18.15
2019-06-20T03:50:43.128Z,18.26
2019-06-20T03:51:43.117Z,18.21
2019-06-20T03:52:43.097Z,18.15
2019-06-20T03:53:43.079Z,18.18
2019-06-20T03:54:43.078Z,18.15
2019-06-20T03:55:43.076Z,18.15
2019-06-20T03:56:43.085Z,18.14
2019-06-20T03:57:43.041Z,18.14
2019-06-20T03:58:43.028Z,18.11
2019-06-20T03:59:43.021Z,18.10
2019-06-20T04:00:43.030Z,18.14
2019-06-20T04:01:43.009Z,18.10
2019-06-20T04:02:42.989Z,18.03
2019-06-20T04:03:42.971Z,18.03
2019-06-20T04:04:42.962Z,18.08
2019-06-20T04:05:42.948Z,18.14
2019-06-20T04:06:42.955Z,17.96
2019-06-20T04:07:42.925Z,18.00
2019-06-20T04:08:42.919Z,17.96
2019-06-20T04:09:42.905Z,17.95
2019-06-20T04:10:42.893Z,17.96
2019-06-20T04:11:42.918Z,17.95
2019-06-20T04:12:42.875Z,18.05
2019-06-20T04:13:42.862Z,18.03
2019-06-20T04:14:42.850Z,17.99
2019-06-20T04:15:42.842Z,18.00
2019-06-20T04:16:42.829Z,18.05
2019-06-20T04:17:42.839Z,18.03
2019-06-20T04:18:42.806Z,18.10
2019-06-20T04:19:42.797Z,18.07
2019-06-20T04:20:42.781Z,18.07
2019-06-20T04:21:42.769Z,18.02
2019-06-20T04:22:42.781Z,17.99
2019-06-20T04:23:42.753Z,18.07
2019-06-20T04:24:42.736Z,18.02
2019-06-20T04:25:42.733Z,18.03
2019-06-20T04:26:42.718Z,18.11
2019-06-20T04:27:42.740Z,17.99
2019-06-20T04:28:42.703Z,18.07
2019-06-20T04:29:42.684Z,18.07
2019-06-20T04:30:42.684Z,18.00
2019-06-20T04:31:42.668Z,18.10
2019-06-20T04:32:42.671Z,18.08
2019-06-20T04:33:42.637Z,18.10
2019-06-20T04:34:42.633Z,18.10
2019-06-20T04:35:42.619Z,18.12
2019-06-20T04:36:42.606Z,18.14
2019-06-20T04:37:42.611Z,18.07
2019-06-20T04:38:42.584Z,18.11
2019-06-20T04:39:42.573Z,18.05
2019-06-20T04:40:42.562Z,18.15
2019-06-20T04:41:42.550Z,18.14
2019-06-20T04:42:42.583Z,18.15
2019-06-20T04:43:42.529Z,18.20
2019-06-20T04:44:42.521Z,18.18
2019-06-20T04:45:42.508Z,18.20
2019-06-20T04:46:42.496Z,18.18
2019-06-20T04:47:42.485Z,18.21
2019-06-20T04:48:42.506Z,18.26
2019-06-20T04:49:42.464Z,18.20
2019-06-20T04:50:42.456Z,18.25
2019-06-20T04:51:42.442Z,18.23
2019-06-20T04:52:42.436Z,18.27
2019-06-20T04:53:42.466Z,18.32
2019-06-20T04:54:42.411Z,18.25
2019-06-20T04:55:42.400Z,18.29
2019-06-20T04:56:42.384Z,18.32
2019-06-20T04:57:42.375Z,18.35
2019-06-20T04:58:42.381Z,18.35
2019-06-20T04:59:42.352Z,18.35
2019-06-20T05:00:42.346Z,18.35
2019-06-20T05:01:42.348Z,18.39
2019-06-20T05:02:42.319Z,18.41
2019-06-20T05:03:42.328Z,18.39
2019-06-20T05:04:42.298Z,18.47
2019-06-20T05:05:42.287Z,18.42
2019-06-20T05:06:42.277Z,18.47
2019-06-20T05:07:42.268Z,18.44
2019-06-20T05:08:42.274Z,18.48
2019-06-20T05:09:42.252Z,18.58
2019-06-20T05:10:42.232Z,18.58
2019-06-20T05:11:42.230Z,18.60
2019-06-20T05:12:42.214Z,18.58
2019-06-20T05:13:42.217Z,18.63
2019-06-20T05:14:42.188Z,18.58
2019-06-20T05:15:51.937Z,18.70
2019-06-20T05:16:43.168Z,18.60
2019-06-20T05:17:42.160Z,18.72
2019-06-20T05:18:42.159Z,18.73
2019-06-20T05:19:42.132Z,18.75
2019-06-20T05:20:42.122Z,18.72
2019-06-20T05:21:42.111Z,18.73
2019-06-20T05:22:42.102Z,18.73
2019-06-20T05:23:42.108Z,18.78
2019-06-20T05:24:42.090Z,18.81
2019-06-20T05:25:42.067Z,18.75
2019-06-20T05:26:42.134Z,18.78
2019-06-20T05:27:42.074Z,18.82
2019-06-20T05:28:42.058Z,18.90
2019-06-20T05:29:42.043Z,18.92
2019-06-20T05:30:42.017Z,18.95
2019-06-20T05:31:42.016Z,18.95
2019-06-20T05:32:42.014Z,19.06
2019-06-20T05:33:41.981Z,19.04
2019-06-20T05:34:42.001Z,19.04
2019-06-20T05:35:42.128Z,19.02
2019-06-20T05:36:41.968Z,19.06
2019-06-20T05:37:41.937Z,19.13
2019-06-20T05:38:41.937Z,19.18
2019-06-20T05:39:41.939Z,19.25
2019-06-20T05:40:41.910Z,19.21
2019-06-20T05:41:41.921Z,19.18
2019-06-20T05:42:41.922Z,19.36
2019-06-20T05:43:41.875Z,19.28
2019-06-20T05:44:41.876Z,19.37
2019-06-20T05:45:44.469Z,19.43
2019-06-20T05:46:42.842Z,19.47
2019-06-20T05:47:41.838Z,19.43
2019-06-20T05:48:41.819Z,19.58
2019-06-20T05:49:41.829Z,19.54
2019-06-20T05:50:41.818Z,19.54
2019-06-20T05:51:41.834Z,19.54
2019-06-20T05:52:41.792Z,19.54
2019-06-20T05:53:41.765Z,19.59
2019-06-20T05:54:41.773Z,19.62
2019-06-20T05:55:41.800Z,19.69
2019-06-20T05:56:41.732Z,19.74
2019-06-20T05:57:41.740Z,19.73
2019-06-20T05:58:41.711Z,19.81
2019-06-20T05:59:41.704Z,19.80
2019-06-20T06:00:41.740Z,19.83
2019-06-20T06:01:41.689Z,19.84
2019-06-20T06:02:41.727Z,19.86
2019-06-20T06:03:41.666Z,19.87
2019-06-20T06:04:41.649Z,19.88
2019-06-20T06:05:41.652Z,19.96
2019-06-20T06:06:41.621Z,19.87
2019-06-20T06:07:41.615Z,19.96
2019-06-20T06:08:41.610Z,19.96
2019-06-20T06:09:41.594Z,19.99
2019-06-20T06:10:41.631Z,20.02
2019-06-20T06:11:41.569Z,20.03
2019-06-20T06:12:41.553Z,20.01
2019-06-20T06:13:41.582Z,20.06
2019-06-20T06:14:41.538Z,20.03
2019-06-20T06:15:42.362Z,20.10
2019-06-20T06:16:44.080Z,20.11
2019-06-20T06:17:42.128Z,20.11
2019-06-20T06:18:41.496Z,20.20
2019-06-20T06:19:41.480Z,20.14
2019-06-20T06:20:44.664Z,20.20
2019-06-20T06:21:41.477Z,20.20
2019-06-20T06:22:44.543Z,20.29
2019-06-20T06:23:41.435Z,20.20
2019-06-20T06:24:41.461Z,20.31
2019-06-20T06:25:41.421Z,20.33
2019-06-20T06:26:41.422Z,20.38
2019-06-20T06:27:41.408Z,20.50
2019-06-20T06:28:41.390Z,20.36
2019-06-20T06:29:41.380Z,20.42
2019-06-20T06:30:41.363Z,20.54
2019-06-20T06:31:41.505Z,20.54
2019-06-20T06:32:41.344Z,20.57
2019-06-20T06:33:41.332Z,20.58
2019-06-20T06:34:41.316Z,20.59
2019-06-20T06:35:41.304Z,20.70
2019-06-20T06:36:41.471Z,20.72
2019-06-20T06:37:41.290Z,20.58
2019-06-20T06:38:41.281Z,20.61
2019-06-20T06:39:43.478Z,20.72
2019-06-20T06:40:41.263Z,20.66
2019-06-20T06:41:41.320Z,20.69
2019-06-20T06:42:41.233Z,20.73
2019-06-20T06:43:42.167Z,20.72
2019-06-20T06:44:41.217Z,20.73
2019-06-20T06:45:41.204Z,20.80
2019-06-20T06:46:47.103Z,20.74
2019-06-20T06:47:42.177Z,20.74
2019-06-20T06:48:41.165Z,20.76
2019-06-20T06:49:41.149Z,20.76
2019-06-20T06:50:41.145Z,20.84
2019-06-20T06:51:41.153Z,20.76
2019-06-20T06:52:41.136Z,20.89
2019-06-20T06:53:41.121Z,20.94
2019-06-20T06:54:41.107Z,20.94
2019-06-20T06:55:41.100Z,21.01
2019-06-20T06:56:41.135Z,21.03
2019-06-20T06:57:41.112Z,20.99
2019-06-20T06:58:41.060Z,21.07
2019-06-20T06:59:41.041Z,21.17
2019-06-20T07:00:41.036Z,21.21
2019-06-20T07:01:41.030Z,21.14
2019-06-20T07:02:41.032Z,21.19
2019-06-20T07:03:41.000Z,21.16
2019-06-20T07:04:40.996Z,21.22
2019-06-20T07:05:40.988Z,21.27
2019-06-20T07:06:40.966Z,21.29
2019-06-20T07:07:41.038Z,21.25
2019-06-20T07:08:40.957Z,21.27
2019-06-20T07:09:40.965Z,21.35
2019-06-20T07:10:40.982Z,21.27
2019-06-20T07:11:40.908Z,21.35
2019-06-20T07:12:40.920Z,21.28
2019-06-20T07:13:40.898Z,21.29
2019-06-20T07:14:42.807Z,21.35
2019-06-20T07:15:40.874Z,21.31
2019-06-20T07:16:40.860Z,21.28
2019-06-20T07:17:40.871Z,21.28
2019-06-20T07:18:40.836Z,21.28
2019-06-20T07:19:40.839Z,21.38
2019-06-20T07:20:40.813Z,21.38
2019-06-20T07:21:40.814Z,21.37
2019-06-20T07:22:40.794Z,21.37
2019-06-20T07:23:40.802Z,21.34
2019-06-20T07:24:40.769Z,21.38
2019-06-20T07:25:40.759Z,21.42
2019-06-20T07:26:40.774Z,21.34
2019-06-20T07:27:40.742Z,21.40
2019-06-20T07:28:40.748Z,21.42
2019-06-20T07:29:40.723Z,21.42
2019-06-20T07:30:40.712Z,21.44
2019-06-20T07:31:40.707Z,21.43
2019-06-20T07:32:40.690Z,21.47
2019-06-20T07:33:40.688Z,21.52
2019-06-20T07:34:40.659Z,21.59
2019-06-20T07:35:41.983Z,21.54
2019-06-20T07:36:40.643Z,21.53
2019-06-20T07:37:40.644Z,21.64
2019-06-20T07:38:40.652Z,21.65
2019-06-20T07:39:40.605Z,21.72
2019-06-20T07:40:40.618Z,21.77
2019-06-20T07:41:40.750Z,21.72
2019-06-20T07:42:40.578Z,21.68
2019-06-20T07:43:40.623Z,21.80
2019-06-20T07:44:40.574Z,21.71
2019-06-20T07:45:40.547Z,21.71
2019-06-20T07:46:40.533Z,21.77
2019-06-20T07:47:40.518Z,21.74
2019-06-20T07:48:40.526Z,21.80
2019-06-20T07:49:40.515Z,21.69
2019-06-20T07:50:40.648Z,21.80
2019-06-20T07:51:40.476Z,21.79
2019-06-20T07:52:41.389Z,21.71
2019-06-20T07:53:40.491Z,21.74
2019-06-20T07:54:40.466Z,21.72
2019-06-20T07:55:40.440Z,21.72
2019-06-20T07:56:40.436Z,21.75
2019-06-20T07:57:40.412Z,21.83
2019-06-20T07:58:40.398Z,21.84
2019-06-20T07:59:40.403Z,21.83
2019-06-20T08:00:40.404Z,21.90
2019-06-20T08:01:40.365Z,21.88
2019-06-20T08:02:40.366Z,21.86
2019-06-20T08:03:40.345Z,21.94
2019-06-20T08:04:40.347Z,22.02
2019-06-20T08:05:40.316Z,21.96
2019-06-20T08:06:40.317Z,21.94
2019-06-20T08:07:40.359Z,22.02
2019-06-20T08:08:40.304Z,22.00
2019-06-20T08:09:44.759Z,22.03
2019-06-20T08:10:41.266Z,22.09
2019-06-20T08:11:40.263Z,22.14
2019-06-20T08:12:40.246Z,22.07
2019-06-20T08:13:40.230Z,22.10
2019-06-20T08:14:40.231Z,22.09
2019-06-20T08:15:40.209Z,22.09
2019-06-20T08:16:40.211Z,22.10
2019-06-20T08:17:40.197Z,22.07
2019-06-20T08:18:40.217Z,22.05
2019-06-20T08:19:40.224Z,22.06
2019-06-20T08:20:40.156Z,21.98
2019-06-20T08:21:40.146Z,21.92
2019-06-20T08:22:40.145Z,22.05
2019-06-20T08:23:40.130Z,21.92
2019-06-20T08:24:40.135Z,21.99
2019-06-20T08:25:40.138Z,21.99
2019-06-20T08:26:40.102Z,22.10
2019-06-20T08:27:40.107Z,22.03
2019-06-20T08:28:40.064Z,21.99
2019-06-20T08:29:40.055Z,22.12
2019-06-20T08:30:40.064Z,22.07
2019-06-20T08:31:40.066Z,22.17
2019-06-20T08:32:40.035Z,22.27
2019-06-20T08:33:40.014Z,22.37
2019-06-20T08:34:40.011Z,22.47
2019-06-20T08:35:40.013Z,22.54
2019-06-20T08:36:39.999Z,22.49
2019-06-20T08:37:39.984Z,22.61
2019-06-20T08:38:39.959Z,22.60
2019-06-20T08:39:39.945Z,22.57
2019-06-20T08:40:40.011Z,22.73
2019-06-20T08:41:39.970Z,22.68
2019-06-20T08:42:39.917Z,22.67
2019-06-20T08:43:39.901Z,22.73
2019-06-20T08:44:39.905Z,22.64
2019-06-20T08:45:39.905Z,22.64
2019-06-20T08:46:39.870Z,22.57
2019-06-20T08:47:39.880Z,22.64
2019-06-20T08:48:39.854Z,22.58
2019-06-20T08:49:39.868Z,22.57
2019-06-20T08:50:39.866Z,22.62
2019-06-20T08:51:39.817Z,22.62
2019-06-20T08:52:39.806Z,22.61
2019-06-20T08:53:39.795Z,22.58
2019-06-20T08:54:39.794Z,22.62
2019-06-20T08:55:39.785Z,22.65
2019-06-20T08:56:39.781Z,22.58
2019-06-20T08:57:39.766Z,22.62
2019-06-20T08:58:39.736Z,22.61
2019-06-20T08:59:39.741Z,22.62
2019-06-20T09:00:39.722Z,22.76
2019-06-20T09:01:39.730Z,22.80
2019-06-20T09:02:39.698Z,22.88
2019-06-20T09:03:39.689Z,23.04
2019-06-20T09:04:39.680Z,23.05
2019-06-20T09:05:39.668Z,23.25
2019-06-20T09:06:39.678Z,23.27
2019-06-20T09:07:41.779Z,23.47
2019-06-20T09:08:39.632Z,23.51
2019-06-20T09:09:39.639Z,23.60
2019-06-20T09:10:39.608Z,23.65
2019-06-20T09:11:39.629Z,23.68
2019-06-20T09:12:39.587Z,23.69
2019-06-20T09:13:40.679Z,23.72
2019-06-20T09:14:39.570Z,23.80
2019-06-20T09:15:39.557Z,23.79
2019-06-20T09:16:39.575Z,23.87
2019-06-20T09:17:39.549Z,23.87
2019-06-20T09:18:39.529Z,23.93
2019-06-20T09:19:39.513Z,23.94
2019-06-20T09:20:39.540Z,23.95
2019-06-20T09:21:39.496Z,24.16
2019-06-20T09:22:39.555Z,24.09
2019-06-20T09:23:39.474Z,24.25
2019-06-20T09:24:39.479Z,24.21
2019-06-20T09:25:39.443Z,24.34
2019-06-20T09:26:39.437Z,24.40
2019-06-20T09:27:39.450Z,24.47
2019-06-20T09:28:39.422Z,24.52
2019-06-20T09:29:41.979Z,24.64
2019-06-20T09:30:39.393Z,24.64
2019-06-20T09:31:39.400Z,24.58
2019-06-20T09:32:39.414Z,24.64
2019-06-20T09:33:39.360Z,24.60
2019-06-20T09:34:39.354Z,24.60
2019-06-20T09:35:39.343Z,24.57
2019-06-20T09:36:39.331Z,24.61
2019-06-20T09:37:39.334Z,24.50
2019-06-20T09:38:39.315Z,24.53
2019-06-20T09:39:39.296Z,24.53
2019-06-20T09:40:39.285Z,24.57
2019-06-20T09:41:39.280Z,24.60
2019-06-20T09:42:39.328Z,24.47
2019-06-20T09:43:39.280Z,24.52
2019-06-20T09:44:39.242Z,24.43
2019-06-20T09:45:39.256Z,24.43
2019-06-20T09:46:39.228Z,24.40
2019-06-20T09:47:39.317Z,24.34
2019-06-20T09:48:39.215Z,24.40
2019-06-20T09:49:39.183Z,24.25
2019-06-20T09:50:39.183Z,24.20
2019-06-20T09:51:39.172Z,24.24
2019-06-20T09:52:39.195Z,24.12
2019-06-20T09:53:39.181Z,24.18
2019-06-20T09:54:39.127Z,24.12
2019-06-20T09:55:39.138Z,24.18
2019-06-20T09:56:39.117Z,24.25
2019-06-20T09:57:39.108Z,24.34
2019-06-20T09:58:39.114Z,24.39
2019-06-20T09:59:39.076Z,24.53
2019-06-20T10:00:39.152Z,24.67
2019-06-20T10:01:39.059Z,24.77
2019-06-20T10:02:39.041Z,24.87
2019-06-20T10:03:39.071Z,24.81
2019-06-20T10:04:39.027Z,24.90
2019-06-20T10:05:39.010Z,24.90
2019-06-20T10:06:39.008Z,24.99
2019-06-20T10:07:38.988Z,25.02
2019-06-20T10:08:38.984Z,25.02
2019-06-20T10:09:39.002Z,25.03
2019-06-20T10:10:38.988Z,24.99
2019-06-20T10:11:38.953Z,24.98
2019-06-20T10:12:38.976Z,24.96
2019-06-20T10:13:38.971Z,24.98
2019-06-20T10:14:38.942Z,24.98
2019-06-20T10:15:38.924Z,25.03
2019-06-20T10:16:45.840Z,25.03
2019-06-20T10:17:39.898Z,24.99
2019-06-20T10:18:38.883Z,24.99
2019-06-20T10:19:38.875Z,24.95
2019-06-20T10:20:39.326Z,25.02
2019-06-20T10:21:38.881Z,24.96
2019-06-20T10:22:38.830Z,24.88
2019-06-20T10:23:38.849Z,24.88
2019-06-20T10:24:38.827Z,24.90
2019-06-20T10:25:38.796Z,24.90
2019-06-20T10:26:38.781Z,24.90
2019-06-20T10:27:38.791Z,24.96
2019-06-20T10:28:38.783Z,24.99
2019-06-20T10:29:38.761Z,24.95
2019-06-20T10:30:38.797Z,25.00
2019-06-20T10:31:38.751Z,24.99
2019-06-20T10:32:38.783Z,25.08
2019-06-20T10:33:38.701Z,25.03
2019-06-20T10:34:38.691Z,25.05
2019-06-20T10:35:38.725Z,25.06
2019-06-20T10:36:38.671Z,25.13
2019-06-20T10:37:38.670Z,25.09
2019-06-20T10:38:38.655Z,25.08
2019-06-20T10:39:38.659Z,25.13
2019-06-20T10:40:38.656Z,25.14
2019-06-20T10:41:38.635Z,25.10
2019-06-20T10:42:38.621Z,25.17
2019-06-20T10:43:38.609Z,25.09
2019-06-20T10:44:38.622Z,25.18
2019-06-20T10:45:38.662Z,25.13
2019-06-20T10:46:38.568Z,25.15
2019-06-20T10:47:38.564Z,25.17
2019-06-20T10:48:38.554Z,25.15
2019-06-20T10:49:38.527Z,25.24
2019-06-20T10:50:38.535Z,25.20
2019-06-20T10:51:38.506Z,25.18
2019-06-20T10:52:38.510Z,25.24
2019-06-20T10:53:38.496Z,25.23
2019-06-20T10:54:38.480Z,25.27
2019-06-20T10:55:38.482Z,25.27
2019-06-20T10:56:38.457Z,25.27
2019-06-20T10:57:38.441Z,25.35
2019-06-20T10:58:38.453Z,25.36
2019-06-20T10:59:38.444Z,25.39
2019-06-20T11:00:39.827Z,25.36
2019-06-20T11:01:39.837Z,25.39
2019-06-20T11:02:38.390Z,25.45
2019-06-20T11:03:39.288Z,25.52
2019-06-20T11:04:40.548Z,25.51
2019-06-20T11:05:39.296Z,25.55
2019-06-20T11:06:39.949Z,25.58
2019-06-20T11:07:38.946Z,25.62
2019-06-20T11:08:39.135Z,25.64
2019-06-20T11:09:39.602Z,25.61
2019-06-20T11:10:38.671Z,25.70
2019-06-20T11:11:39.754Z,25.75
2019-06-20T11:12:45.648Z,25.75
2019-06-20T11:13:40.502Z,25.64
2019-06-20T11:14:39.148Z,25.73
2019-06-20T11:15:39.242Z,25.77
2019-06-20T11:16:38.460Z,25.75
2019-06-20T11:17:39.169Z,25.87
2019-06-20T11:18:38.849Z,25.99
2019-06-20T11:19:39.509Z,25.98
2019-06-20T11:20:39.493Z,26.06
2019-06-20T11:21:39.802Z,26.06
2019-06-20T11:22:39.787Z,26.01
2019-06-20T11:23:39.335Z,26.05
2019-06-20T11:24:39.216Z,26.06
2019-06-20T11:25:38.801Z,25.95
2019-06-20T11:26:39.345Z,26.05
2019-06-20T11:27:38.751Z,26.01
2019-06-20T11:28:39.274Z,25.98
2019-06-20T11:29:38.099Z,26.12
2019-06-20T11:30:53.317Z,26.15
2019-06-20T11:31:41.741Z,26.18
2019-06-20T11:32:39.451Z,26.18
2019-06-20T11:33:39.025Z,26.12
2019-06-20T11:34:39.375Z,26.20
2019-06-20T11:35:39.216Z,26.12
2019-06-20T11:36:38.692Z,26.12
2019-06-20T11:37:38.034Z,26.15
2019-06-20T11:38:39.143Z,26.02
2019-06-20T11:39:38.901Z,26.05
2019-06-20T11:40:38.565Z,26.15
2019-06-20T11:41:38.383Z,26.09
2019-06-20T11:42:37.953Z,26.06
2019-06-20T11:43:38.432Z,25.99
2019-06-20T11:44:38.909Z,25.94
2019-06-20T11:45:38.915Z,25.97
2019-06-20T11:46:38.550Z,25.88
2019-06-20T11:47:38.281Z,25.80
2019-06-20T11:48:38.453Z,25.76
2019-06-20T11:49:38.220Z,25.80
2019-06-20T11:50:38.005Z,25.76
2019-06-20T11:51:37.870Z,25.76
2019-06-20T11:52:42.041Z,25.80
2019-06-20T11:53:38.859Z,25.79
2019-06-20T11:54:38.259Z,25.76
2019-06-20T11:55:37.819Z,25.75
2019-06-20T11:56:37.807Z,25.76
2019-06-20T11:57:37.794Z,25.77
2019-06-20T11:58:37.815Z,25.76
2019-06-20T11:59:37.774Z,25.77
2019-06-20T12:00:37.774Z,25.72
2019-06-20T12:01:39.585Z,25.72
2019-06-20T12:02:40.488Z,25.73
2019-06-20T12:03:39.060Z,25.72
2019-06-20T12:04:38.224Z,25.69
2019-06-20T12:05:38.650Z,25.64
2019-06-20T12:06:38.427Z,25.72
2019-06-20T12:07:39.539Z,25.73
2019-06-20T12:08:39.087Z,25.77
2019-06-20T12:09:37.986Z,25.72
2019-06-20T12:10:38.068Z,25.77
2019-06-20T12:11:39.051Z,25.77
2019-06-20T12:12:39.049Z,25.85
2019-06-20T12:13:38.739Z,25.97
2019-06-20T12:14:37.879Z,26.09
2019-06-20T12:15:38.105Z,26.05
2019-06-20T12:16:39.077Z,26.09
2019-06-20T12:17:38.157Z,26.12
2019-06-20T12:18:38.661Z,26.06
2019-06-20T12:19:38.286Z,26.06
2019-06-20T12:20:37.886Z,26.02
2019-06-20T12:21:38.010Z,25.95
2019-06-20T12:22:39.402Z,25.99
2019-06-20T12:23:38.094Z,25.91
2019-06-20T12:24:38.157Z,25.91
2019-06-20T12:25:39.069Z,25.87
2019-06-20T12:26:38.941Z,25.90
2019-06-20T12:27:38.667Z,25.83
2019-06-20T12:28:39.041Z,25.80
2019-06-20T12:29:37.754Z,25.70
2019-06-20T12:30:38.376Z,25.70
2019-06-20T12:31:37.440Z,25.67
2019-06-20T12:32:37.412Z,25.70
2019-06-20T12:33:38.226Z,25.73
2019-06-20T12:34:38.859Z,25.76
2019-06-20T12:35:37.860Z,25.75
2019-06-20T12:36:39.026Z,25.75
2019-06-20T12:37:37.374Z,25.75
2019-06-20T12:38:38.077Z,25.76
2019-06-20T12:39:38.614Z,25.80
2019-06-20T12:40:39.096Z,25.79
2019-06-20T12:41:38.726Z,25.79
2019-06-20T12:42:39.175Z,25.79
2019-06-20T12:43:38.719Z,25.80
2019-06-20T12:44:38.505Z,25.83
2019-06-20T12:45:38.224Z,25.77
2019-06-20T12:46:39.339Z,25.75
2019-06-20T12:47:38.420Z,25.77
2019-06-20T12:48:38.134Z,25.62
2019-06-20T12:49:38.526Z,25.72
2019-06-20T12:50:38.498Z,25.72
2019-06-20T12:51:37.346Z,25.62
2019-06-20T12:52:37.640Z,25.52